Time;durP1;ratioP1;P1;durP2;ratioP2;P2;SDS_P1;SDS_P2;PMS_P1;PMS_P2;Temp;Humidity;BMP_temperature;BMP_pressure;BME280_temperature;BME280_humidity;BME280_pressure;Samples;Min_cycle;Max_cycle;Signal;HPM_P1;HPM_P2
2023/03/21 00:00:38;;;;;;;2.88;2.30;;;;;;;11.29;100.00;100515.75;5046154;28;20037;-50
2023/03/21 00:03:03;;;;;;;3.13;2.15;;;;;;;11.79;100.00;100516.41;5051279;28;20397;-50
2023/03/21 00:05:29;;;;;;;4.13;1.80;;;;;;;11.69;100.00;100506.16;5047671;28;20029;-53
2023/03/21 00:07:54;;;;;;;5.10;2.85;;;;;;;11.97;100.00;100502.63;5049135;28;20025;-52
2023/03/21 00:10:20;;;;;;;3.13;2.10;;;;;;;12.04;100.00;100500.00;5044561;28;20033;-52
2023/03/21 00:12:49;;;;;;;4.40;2.28;;;;;;;12.05;100.00;100498.97;5045921;28;20445;-56
2023/03/21 00:15:17;;;;;;;6.47;2.90;;;;;;;12.17;100.00;100497.38;5045352;28;20060;-54
2023/03/21 00:17:43;;;;;;;4.60;2.75;;;;;;;11.95;100.00;100496.69;5038877;28;20409;-52
2023/03/21 00:20:14;;;;;;;3.17;1.90;;;;;;;12.04;100.00;100490.19;5038227;28;20478;-50
2023/03/21 00:22:40;;;;;;;8.70;2.05;;;;;;;11.97;100.00;100490.16;5046048;28;20025;-52
2023/03/21 00:25:07;;;;;;;6.15;2.60;;;;;;;12.00;100.00;100478.28;5051524;28;20028;-55
2023/03/21 00:27:33;;;;;;;3.70;1.80;;;;;;;11.98;100.00;100486.47;5048251;28;20025;-54
2023/03/21 00:29:59;;;;;;;2.70;2.50;;;;;;;12.04;100.00;100476.06;5051552;28;20401;-52
2023/03/21 00:32:25;;;;;;;3.30;2.28;;;;;;;12.03;100.00;100472.59;5050586;28;20025;-56
2023/03/21 00:34:51;;;;;;;3.88;1.50;;;;;;;11.94;100.00;100482.56;5048693;28;20495;-56
2023/03/21 00:37:17;;;;;;;6.88;3.25;;;;;;;11.95;100.00;100478.91;5044742;28;20038;-52
2023/03/21 00:39:47;;;;;;;8.75;3.78;;;;;;;11.92;100.00;100475.81;5055355;28;20401;-55
2023/03/21 00:42:12;;;;;;;10.05;3.15;;;;;;;11.89;100.00;100474.38;5045774;28;20025;-52
2023/03/21 00:44:39;;;;;;;8.80;3.10;;;;;;;11.87;100.00;100468.44;5044070;28;20033;-57
2023/03/21 00:47:06;;;;;;;6.75;3.17;;;;;;;11.89;100.00;100458.44;5047083;28;20025;-52
2023/03/21 00:49:32;;;;;;;6.93;3.17;;;;;;;11.91;100.00;100469.69;5045620;28;20053;-53
2023/03/21 00:52:03;;;;;;;4.15;2.50;;;;;;;12.09;100.00;100449.72;5048409;28;20390;-56
2023/03/21 00:54:29;;;;;;;10.70;3.08;;;;;;;11.20;100.00;100454.03;5045199;28;20746;-53
2023/03/21 00:56:54;;;;;;;8.98;3.03;;;;;;;11.72;100.00;100455.31;5049549;28;20040;-52
2023/03/21 00:59:19;;;;;;;14.48;4.70;;;;;;;12.02;100.00;100452.34;5041174;28;20421;-50
2023/03/21 01:01:45;;;;;;;7.82;3.25;;;;;;;12.04;100.00;100444.19;5047077;28;20552;-51
2023/03/21 01:04:13;;;;;;;11.15;3.67;;;;;;;12.06;100.00;100447.47;5039695;28;20064;-51
2023/03/21 01:06:40;;;;;;;7.03;3.05;;;;;;;12.12;100.00;100430.72;5045657;28;20592;-56
2023/03/21 01:09:11;;;;;;;6.13;3.58;;;;;;;12.07;100.00;100425.19;5046303;28;20062;-54
2023/03/21 01:11:36;;;;;;;7.43;4.32;;;;;;;11.90;100.00;100422.91;5042699;28;20037;-53
2023/03/21 01:14:01;;;;;;;6.88;4.25;;;;;;;11.95;100.00;100425.78;5045869;28;20031;-53
2023/03/21 01:16:27;;;;;;;8.93;3.38;;;;;;;12.12;100.00;100412.91;5041888;28;20025;-53
2023/03/21 01:18:52;;;;;;;4.80;4.07;;;;;;;12.03;100.00;100416.81;5046819;28;20098;-55
2023/03/21 01:21:18;;;;;;;6.65;3.72;;;;;;;12.14;100.00;100410.88;5051315;28;20036;-52
2023/03/21 01:23:43;;;;;;;8.57;3.22;;;;;;;12.11;100.00;100415.78;5048347;28;20447;-51
2023/03/21 01:26:10;;;;;;;4.32;3.00;;;;;;;12.15;100.00;100420.47;5051606;28;20124;-53
2023/03/21 01:28:37;;;;;;;5.55;2.75;;;;;;;12.15;100.00;100420.47;5041362;28;20351;-56
2023/03/21 01:31:03;;;;;;;4.88;4.38;;;;;;;12.05;100.00;100419.25;5047242;28;20032;-51
2023/03/21 01:33:30;;;;;;;6.22;3.47;;;;;;;12.23;100.00;100411.50;5036399;28;20470;-55
2023/03/21 01:35:55;;;;;;;10.20;4.50;;;;;;;11.99;100.00;100410.25;5041550;28;20071;-53
2023/03/21 01:38:21;;;;;;;16.10;4.72;;;;;;;12.00;100.00;100404.75;5041918;28;20029;-52
2023/03/21 01:40:48;;;;;;;12.00;5.10;;;;;;;12.09;100.00;100392.06;5054948;28;20494;-55
2023/03/21 01:43:31;;;;;;;9.18;4.40;;;;;;;12.06;100.00;100386.34;5042596;28;20103;-54
2023/03/21 01:46:08;;;;;;;10.18;2.83;;;;;;;12.30;100.00;100382.25;5048997;28;20131;-52
2023/03/21 01:48:38;;;;;;;5.97;3.50;;;;;;;12.18;100.00;100379.38;5053335;28;20040;-50
2023/03/21 01:51:04;;;;;;;4.35;2.75;;;;;;;12.00;100.00;100388.78;5053028;28;20037;-52
2023/03/21 01:53:31;;;;;;;7.68;2.88;;;;;;;11.88;100.00;100393.06;5043494;28;20040;-50
2023/03/21 01:56:00;;;;;;;3.10;2.45;;;;;;;11.83;100.00;100379.53;5051547;28;20083;-52
2023/03/21 01:58:26;;;;;;;4.10;3.03;;;;;;;11.65;100.00;100382.75;5052152;28;20028;-52
2023/03/21 02:00:54;;;;;;;8.45;3.75;;;;;;;11.70;100.00;100379.50;5049132;28;20029;-55
2023/03/21 02:03:19;;;;;;;9.60;3.53;;;;;;;11.69;100.00;100364.56;5039311;28;20024;-53
2023/03/21 02:05:51;;;;;;;11.00;4.53;;;;;;;11.62;100.00;100367.22;5053836;28;20394;-52
2023/03/21 02:08:16;;;;;;;11.00;3.92;;;;;;;11.65;100.00;100366.00;5040383;28;20025;-53
2023/03/21 02:10:45;;;;;;;7.43;3.67;;;;;;;11.92;100.00;100357.06;5042128;28;20033;-56
2023/03/21 02:13:10;;;;;;;9.48;4.25;;;;;;;11.97;100.00;100359.13;5041113;28;20083;-55
2023/03/21 02:15:39;;;;;;;6.40;2.75;;;;;;;12.03;100.00;100350.38;5046233;28;20493;-52
2023/03/21 02:18:25;;;;;;;6.28;2.88;;;;;;;12.02;100.00;100347.91;5044594;28;20044;-55
2023/03/21 02:21:08;;;;;;;12.40;2.72;;;;;;;12.20;100.00;100332.97;5050040;28;20281;-55
2023/03/21 02:23:55;;;;;;;5.28;2.10;;;;;;;12.27;100.00;100330.31;5045969;28;20421;-52
2023/03/21 02:26:39;;;;;;;4.80;2.53;;;;;;;12.33;100.00;100326.81;5043414;28;20055;-53
2023/03/21 02:29:23;;;;;;;9.63;2.50;;;;;;;12.03;100.00;100337.09;5051891;28;20140;-55
2023/03/21 02:32:15;;;;;;;5.38;2.78;;;;;;;12.23;100.00;100315.78;5057102;28;20179;-52
2023/03/21 02:35:08;;;;;;;4.38;2.90;;;;;;;12.23;100.00;100313.13;5041704;28;20033;-54
2023/03/21 02:37:47;;;;;;;6.45;3.03;;;;;;;12.28;100.00;100317.84;5044005;28;20037;-53
2023/03/21 02:40:29;;;;;;;3.08;2.33;;;;;;;11.98;100.00;100307.66;5043646;28;20497;-55
2023/03/21 02:43:36;;;;;;;5.15;2.75;;;;;;;12.19;100.00;100291.47;5047485;28;20032;-57
2023/03/21 02:46:33;;;;;;;13.57;3.15;;;;;;;12.22;100.00;100293.72;5044242;28;20037;-54
2023/03/21 02:49:08;;;;;;;3.63;2.17;;;;;;;12.02;100.00;100294.75;5049608;28;20056;-52
2023/03/21 02:51:36;;;;;;;8.90;2.65;;;;;;;12.18;100.00;100286.34;5046210;28;20053;-51
2023/03/21 02:54:07;;;;;;;4.15;1.45;;;;;;;12.18;100.00;100289.00;5052726;28;20440;-51
2023/03/21 02:56:34;;;;;;;3.42;2.30;;;;;;;11.58;100.00;100281.81;5047468;28;20040;-56
2023/03/21 02:59:00;;;;;;;2.95;1.88;;;;;;;11.64;100.00;100284.69;5051818;28;20044;-56
2023/03/21 03:01:25;;;;;;;4.65;1.80;;;;;;;11.61;100.00;100296.53;5047210;28;20438;-53
2023/03/21 03:03:51;;;;;;;4.22;2.63;;;;;;;11.46;100.00;100291.41;5049408;28;20123;-53
2023/03/21 03:06:26;;;;;;;5.07;2.10;;;;;;;11.67;100.00;100269.19;5044049;28;20132;-50
2023/03/21 03:09:03;;;;;;;6.07;2.40;;;;;;;11.49;100.00;100275.09;5051419;28;20437;-55
2023/03/21 03:11:42;;;;;;;10.32;3.28;;;;;;;11.57;100.00;100287.34;5040768;28;20025;-54
2023/03/21 03:15:03;;;;;;;14.40;2.53;;;;;;;11.63;100.00;100281.22;5047728;28;20062;-56
2023/03/21 03:17:42;;;;;;;10.95;2.33;;;;;;;11.37;100.00;100278.53;5000097;28;20029;-54
2023/03/21 03:20:26;;;;;;;4.78;2.10;;;;;;;11.53;100.00;100278.94;5047131;28;20073;-53
2023/03/21 03:22:58;;;;;;;3.70;1.48;;;;;;;11.36;100.00;100277.72;5048926;28;20558;-52
2023/03/21 03:25:34;;;;;;;4.75;1.90;;;;;;;11.33;100.00;100273.63;5048605;28;20036;-52
2023/03/21 03:28:04;;;;;;;5.60;1.50;;;;;;;11.33;100.00;100262.16;5044859;28;20034;-53
2023/03/21 03:30:30;;;;;;;1.73;1.20;;;;;;;11.35;100.00;100268.91;5053517;28;20382;-57
2023/03/21 03:33:01;;;;;;;4.43;1.02;;;;;;;11.49;100.00;100271.63;5051254;28;20036;-55
2023/03/21 03:35:26;;;;;;;4.72;1.33;;;;;;;11.66;100.00;100253.44;5048072;28;20446;-55
2023/03/21 03:37:56;;;;;;;10.80;2.47;;;;;;;10.98;100.00;100254.31;5052045;28;20124;-51
2023/03/21 03:40:29;;;;;;;3.10;0.95;;;;;;;11.47;100.00;100249.75;5055425;28;20123;-52
2023/03/21 03:43:01;;;;;;;8.95;1.88;;;;;;;11.60;100.00;100240.97;5046827;28;20025;-51
2023/03/21 03:45:40;;;;;;;3.58;1.80;;;;;;;11.82;100.00;100234.44;5047637;28;20032;-57
2023/03/21 03:48:17;;;;;;;3.92;0.77;;;;;;;11.84;100.00;100226.25;5050142;28;20041;-54
2023/03/21 03:51:04;;;;;;;7.47;1.20;;;;;;;11.82;100.00;100229.13;5058250;28;20040;-51
2023/03/21 03:53:37;;;;;;;2.38;1.38;;;;;;;11.76;100.00;100220.13;5042991;28;20045;-51
2023/03/21 03:56:04;;;;;;;4.10;1.27;;;;;;;11.78;100.00;100220.75;5048253;28;20585;-51
2023/03/21 03:58:31;;;;;;;10.48;1.33;;;;;;;11.75;100.00;100218.50;5041707;28;20116;-53
2023/03/21 04:00:56;;;;;;;3.63;1.27;;;;;;;11.71;100.00;100217.28;5041253;28;20377;-49
2023/03/21 04:03:22;;;;;;;2.88;0.50;;;;;;;11.47;100.00;100224.00;5048078;28;20032;-54
2023/03/21 04:05:47;;;;;;;1.88;0.63;;;;;;;11.63;100.00;100220.13;5041981;28;20033;-50
2023/03/21 04:08:14;;;;;;;4.97;1.77;;;;;;;11.60;100.00;100219.75;5050666;28;20123;-53
2023/03/21 04:10:41;;;;;;;9.07;0.80;;;;;;;11.46;100.00;100211.78;5048107;28;20030;-53
2023/03/21 04:13:07;;;;;;;5.65;0.98;;;;;;;11.38;100.00;100227.06;5044290;28;20094;-50
2023/03/21 04:15:33;;;;;;;2.65;0.28;;;;;;;11.37;100.00;100223.59;5042802;28;20466;-52
2023/03/21 04:17:58;;;;;;;3.00;0.65;;;;;;;11.43;100.00;100219.31;5048298;28;20397;-49
2023/03/21 04:20:24;;;;;;;9.80;2.25;;;;;;;11.45;100.00;100225.25;5040799;28;20095;-53
2023/03/21 04:22:50;;;;;;;4.82;0.57;;;;;;;11.47;100.00;100226.66;5043513;28;20028;-49
2023/03/21 04:25:15;;;;;;;8.85;2.58;;;;;;;11.51;100.00;100225.25;5051655;28;20394;-55
2023/03/21 04:27:41;;;;;;;2.30;1.38;;;;;;;11.14;100.00;100229.25;5043949;28;20035;-55
2023/03/21 04:30:11;;;;;;;2.83;0.35;;;;;;;11.04;100.00;100224.34;5044006;28;20052;-53
2023/03/21 04:32:38;;;;;;;2.80;0.82;;;;;;;11.20;100.00;100227.63;5048356;28;20367;-51
2023/03/21 04:35:04;;;;;;;3.45;0.40;;;;;;;11.31;100.00;100224.41;5046871;28;20028;-50
2023/03/21 04:37:32;;;;;;;6.97;0.95;;;;;;;11.29;100.00;100218.47;5051030;28;20025;-54
2023/03/21 04:39:58;;;;;;;2.13;0.40;;;;;;;11.24;100.00;100215.63;5040459;28;20028;-54
2023/03/21 04:42:23;;;;;;;4.85;0.77;;;;;;;11.22;100.00;100217.66;5046853;28;20069;-51
2023/03/21 04:44:49;;;;;;;0.90;0.38;;;;;;;11.23;100.00;100206.84;5041113;28;20033;-51
2023/03/21 04:47:14;;;;;;;2.25;0.55;;;;;;;11.28;100.00;100206.22;5048722;28;20474;-50
2023/03/21 04:49:41;;;;;;;0.47;0.45;;;;;;;11.14;100.00;100173.53;5048218;28;20036;-51
2023/03/21 04:52:07;;;;;;;4.75;1.15;;;;;;;11.13;100.00;100191.31;5047368;28;20024;-52
2023/03/21 04:54:33;;;;;;;3.13;0.43;;;;;;;11.13;100.00;100179.88;5044660;28;20429;-51
2023/03/21 04:56:58;;;;;;;7.43;0.63;;;;;;;11.31;100.00;100174.78;5053259;28;20029;-52
2023/03/21 04:59:24;;;;;;;10.88;0.93;;;;;;;11.33;100.00;100163.94;5047680;28;20029;-52
2023/03/21 05:01:50;;;;;;;1.77;0.45;;;;;;;11.28;100.00;100161.09;5048993;28;20033;-49
2023/03/21 05:04:16;;;;;;;3.15;1.20;;;;;;;11.27;100.00;100172.75;5043463;28;20112;-55
2023/03/21 05:06:43;;;;;;;4.35;0.63;;;;;;;11.38;100.00;100171.31;5047299;28;20490;-50
2023/03/21 05:09:09;;;;;;;2.22;0.93;;;;;;;11.39;100.00;100172.97;5042906;28;20401;-50
2023/03/21 05:11:36;;;;;;;4.82;2.28;;;;;;;11.53;100.00;100170.09;5044810;28;20036;-51
2023/03/21 05:14:06;;;;;;;3.20;0.70;;;;;;;11.56;100.00;100164.41;5043920;28;20490;-54
2023/03/21 05:16:33;;;;;;;1.98;0.82;;;;;;;11.64;100.00;100167.84;5040975;28;20033;-51
2023/03/21 05:19:03;;;;;;;1.73;0.55;;;;;;;11.52;100.00;100155.19;5047302;28;20037;-51
2023/03/21 05:21:33;;;;;;;1.25;0.50;;;;;;;11.32;100.00;100163.16;5040473;28;20029;-52
2023/03/21 05:24:02;;;;;;;3.83;1.67;;;;;;;11.35;100.00;100160.06;5049623;28;20538;-54
2023/03/21 05:26:28;;;;;;;2.65;0.85;;;;;;;11.47;100.00;100152.34;5047484;28;20032;-52
2023/03/21 05:28:54;;;;;;;2.05;0.82;;;;;;;11.37;100.00;100157.22;5049562;28;20041;-52
2023/03/21 05:31:19;;;;;;;9.77;0.68;;;;;;;10.98;100.00;100158.81;5041612;28;20051;-50
2023/03/21 05:33:46;;;;;;;5.88;0.60;;;;;;;10.86;100.00;100163.88;5045752;28;20021;-53
2023/03/21 05:36:12;;;;;;;1.30;0.75;;;;;;;10.82;100.00;100162.66;5046856;28;20509;-56
2023/03/21 05:38:44;;;;;;;8.55;1.48;;;;;;;10.82;100.00;100162.66;5051854;28;20025;-56
2023/03/21 05:41:09;;;;;;;5.95;1.17;;;;;;;10.87;100.00;100165.53;5044639;28;20029;-53
2023/03/21 05:43:35;;;;;;;4.85;1.23;;;;;;;10.73;100.00;100165.69;5042175;28;20074;-52
2023/03/21 05:46:00;;;;;;;2.00;0.40;;;;;;;10.68;100.00;100171.59;5043701;28;20041;-51
2023/03/21 05:48:25;;;;;;;3.88;1.63;;;;;;;10.60;100.00;100177.88;5041698;28;20071;-53
2023/03/21 05:50:52;;;;;;;3.90;2.00;;;;;;;10.63;100.00;100166.06;5045679;28;20040;-52
2023/03/21 05:53:17;;;;;;;2.65;0.30;;;;;;;10.61;100.00;100154.84;5043812;28;20025;-51
2023/03/21 05:55:43;;;;;;;4.35;2.33;;;;;;;10.75;100.00;100147.75;5045812;28;20399;-49
2023/03/21 05:58:08;;;;;;;0.68;0.45;;;;;;;10.67;100.00;100157.53;5052795;28;20098;-48
2023/03/21 06:00:33;;;;;;;0.30;0.30;;;;;;;10.82;100.00;100145.94;5043623;28;20053;-51
2023/03/21 06:02:59;;;;;;;6.30;0.57;;;;;;;10.82;100.00;100146.75;5046441;28;20042;-53
2023/03/21 06:05:24;;;;;;;11.23;0.70;;;;;;;10.94;100.00;100128.41;5044791;28;20040;-54
2023/03/21 06:07:50;;;;;;;3.90;0.80;;;;;;;10.97;100.00;100135.13;5047204;28;20024;-51
2023/03/21 06:10:15;;;;;;;1.38;0.63;;;;;;;10.84;100.00;100141.25;5038380;28;20037;-52
2023/03/21 06:12:42;;;;;;;2.20;0.68;;;;;;;10.88;100.00;100126.56;5044089;28;20025;-51
2023/03/21 06:15:08;;;;;;;1.10;0.30;;;;;;;10.93;100.00;100150.66;5048643;28;20029;-50
2023/03/21 06:17:33;;;;;;;0.80;0.50;;;;;;;10.97;100.00;100157.22;5047104;28;20063;-55
2023/03/21 06:20:03;;;;;;;5.43;0.63;;;;;;;10.92;100.00;100170.25;5046492;28;20073;-54
2023/03/21 06:22:29;;;;;;;2.80;2.45;;;;;;;10.90;100.00;100161.66;5046967;28;20082;-53
2023/03/21 06:24:55;;;;;;;1.08;0.57;;;;;;;10.92;100.00;100170.25;5051083;28;20024;-56
2023/03/21 06:27:20;;;;;;;0.90;0.50;;;;;;;10.94;100.00;100167.38;5050407;28;20033;-56
2023/03/21 06:29:46;;;;;;;1.00;0.45;;;;;;;10.97;100.00;100173.13;5039994;28;20025;-50
2023/03/21 06:32:12;;;;;;;4.13;0.70;;;;;;;11.21;100.00;100162.94;5036088;28;20084;-56
2023/03/21 06:34:37;;;;;;;1.50;0.40;;;;;;;11.03;100.00;100177.59;5046374;28;20040;-56
2023/03/21 06:37:03;;;;;;;1.55;0.68;;;;;;;11.33;100.00;100167.44;5045397;28;20383;-53
2023/03/21 06:39:29;;;;;;;1.52;0.43;;;;;;;11.34;100.00;100157.66;5049030;28;20123;-55
2023/03/21 06:41:55;;;;;;;1.95;0.70;;;;;;;11.37;100.00;100162.53;5051081;28;20757;-54
2023/03/21 06:44:21;;;;;;;3.45;0.77;;;;;;;11.03;100.00;100155.56;5047436;28;20024;-51
2023/03/21 06:46:47;;;;;;;3.00;0.95;;;;;;;10.91;100.00;100165.94;5043728;28;20520;-55
2023/03/21 06:49:12;;;;;;;1.55;0.47;;;;;;;10.87;100.00;100159.44;5051183;28;20095;-53
2023/03/21 06:51:37;;;;;;;0.80;0.57;;;;;;;11.22;100.00;100153.97;5047159;28;20029;-56
2023/03/21 06:54:03;;;;;;;0.98;0.90;;;;;;;11.27;100.00;100147.00;5051769;28;20029;-55
2023/03/21 06:56:28;;;;;;;1.52;0.43;;;;;;;11.18;100.00;100153.56;5045615;28;20477;-55
2023/03/21 06:58:53;;;;;;;4.28;0.85;;;;;;;11.39;100.00;100143.78;5046753;28;20389;-54
2023/03/21 07:01:19;;;;;;;2.75;1.55;;;;;;;11.22;100.00;100138.03;5052815;28;20465;-55
2023/03/21 07:03:45;;;;;;;2.38;1.33;;;;;;;11.45;100.00;100137.63;5033683;28;20180;-55
2023/03/21 07:06:10;;;;;;;5.43;0.90;;;;;;;11.12;100.00;100133.94;5046540;28;20044;-55
2023/03/21 07:08:37;;;;;;;1.52;0.55;;;;;;;11.04;100.00;100138.63;5047357;28;20462;-50
2023/03/21 07:11:03;;;;;;;3.05;0.35;;;;;;;11.38;100.00;100140.28;5046822;28;20484;-53
2023/03/21 07:13:28;;;;;;;3.03;1.10;;;;;;;11.46;100.00;100140.09;5044973;28;20478;-53
2023/03/21 07:15:54;;;;;;;2.95;0.52;;;;;;;11.31;100.00;100136.81;5053471;28;20028;-55
2023/03/21 07:18:19;;;;;;;3.03;0.60;;;;;;;11.20;100.00;100137.41;5051147;28;20035;-55
2023/03/21 07:20:51;;;;;;;1.15;0.45;;;;;;;11.07;100.00;100141.69;5043778;28;20470;-53
2023/03/21 07:23:27;;;;;;;0.90;0.25;;;;;;;11.39;100.00;100133.16;5048448;28;20115;-54
2023/03/21 07:25:53;;;;;;;4.70;1.00;;;;;;;11.34;100.00;100133.75;5042992;28;20116;-51
2023/03/21 07:28:18;;;;;;;0.60;0.60;;;;;;;11.36;100.00;100134.38;5043894;28;20064;-56
2023/03/21 07:30:45;;;;;;;3.05;1.08;;;;;;;11.42;100.00;100133.53;5042995;28;20448;-52
2023/03/21 07:33:11;;;;;;;2.15;0.80;;;;;;;11.43;100.00;100124.56;5046560;28;20049;-62
2023/03/21 07:35:36;;;;;;;1.48;1.10;;;;;;;11.51;100.00;100119.06;5044812;28;20032;-56
2023/03/21 07:38:04;;;;;;;1.42;0.45;;;;;;;11.76;100.00;100126.34;5048365;28;20055;-54
2023/03/21 07:40:30;;;;;;;2.28;1.00;;;;;;;11.82;100.00;100119.41;5044233;28;20033;-53
2023/03/21 07:42:55;;;;;;;0.85;0.30;;;;;;;11.86;100.00;100132.09;5044671;28;20119;-55
2023/03/21 07:45:24;;;;;;;0.88;0.82;;;;;;;11.88;100.00;100126.59;5044030;28;20408;-51
2023/03/21 07:47:50;;;;;;;3.47;0.45;;;;;;;11.79;100.00;100134.72;5043143;28;20037;-55
2023/03/21 07:50:16;;;;;;;1.30;0.60;;;;;;;11.69;100.00;100138.81;5040821;28;20043;-54
2023/03/21 07:52:42;;;;;;;0.25;0.15;;;;;;;11.77;100.00;100133.28;5047050;28;20040;-56
2023/03/21 07:55:08;;;;;;;3.53;0.52;;;;;;;11.68;100.00;100139.84;5048017;28;20021;-55
2023/03/21 07:57:33;;;;;;;0.57;0.35;;;;;;;11.86;100.00;100134.75;5054587;28;20121;-50
2023/03/21 07:59:58;;;;;;;1.20;0.25;;;;;;;11.84;100.00;100146.56;5044417;28;20037;-50
2023/03/21 08:02:24;;;;;;;1.20;0.30;;;;;;;11.97;100.00;100133.28;5044409;28;20029;-48
2023/03/21 08:04:49;;;;;;;1.75;0.38;;;;;;;12.11;100.00;100134.09;5050259;28;20036;-56
2023/03/21 08:07:14;;;;;;;3.75;0.55;;;;;;;12.13;100.00;100132.00;5047907;28;20039;-54
2023/03/21 08:09:42;;;;;;;0.63;0.10;;;;;;;12.25;100.00;100138.31;5041323;28;20024;-52
2023/03/21 08:12:07;;;;;;;0.55;0.22;;;;;;;12.29;100.00;100134.22;5042753;28;20064;-57
2023/03/21 08:14:33;;;;;;;3.65;1.00;;;;;;;12.28;100.00;100135.22;5045756;28;20541;-50
2023/03/21 08:16:58;;;;;;;3.78;0.57;;;;;;;12.34;100.00;100126.44;5037837;28;20302;-57
2023/03/21 08:19:25;;;;;;;0.77;0.65;;;;;;;12.40;100.00;100127.44;5043081;28;20056;-57
2023/03/21 08:21:51;;;;;;;2.55;0.28;;;;;;;12.60;100.00;100130.81;5044949;28;20418;-52
2023/03/21 08:24:17;;;;;;;3.90;1.00;;;;;;;12.75;100.00;100119.88;5046864;28;20023;-52
2023/03/21 08:26:44;;;;;;;1.40;0.10;;;;;;;12.87;100.00;100123.47;5049636;28;20029;-50
2023/03/21 08:29:10;;;;;;;2.47;0.70;;;;;;;12.85;100.00;100122.06;5048574;28;20699;-55
2023/03/21 08:31:35;;;;;;;1.42;0.38;;;;;;;12.83;100.00;100127.59;5060646;28;20371;-57
2023/03/21 08:34:01;;;;;;;1.88;0.43;;;;;;;12.91;100.00;100123.03;5050072;28;20064;-57
2023/03/21 08:36:26;;;;;;;1.90;1.00;;;;;;;12.79;100.00;100128.25;5045466;28;20033;-66
2023/03/21 08:38:55;;;;;;;6.50;0.50;;;;;;;12.80;100.00;100116.56;5048179;28;20033;-52
2023/03/21 08:41:23;;;;;;;1.75;0.38;;;;;;;12.79;100.00;100110.44;5057253;28;20032;-55
2023/03/21 08:43:48;;;;;;;2.67;0.80;;;;;;;12.95;100.00;100111.75;5036897;28;20025;-57
2023/03/21 08:46:14;;;;;;;5.80;0.93;;;;;;;13.27;100.00;100109.91;5040254;28;20462;-53
2023/03/21 08:48:39;;;;;;;2.03;0.25;;;;;;;13.22;100.00;100095.59;5042991;28;20013;-53
2023/03/21 08:51:05;;;;;;;0.68;0.50;;;;;;;13.23;100.00;100092.69;5041123;28;20037;-51
2023/03/21 08:53:31;;;;;;;1.60;1.10;;;;;;;13.23;100.00;100082.06;5060762;28;20032;-53
2023/03/21 08:55:57;;;;;;;9.23;0.50;;;;;;;13.35;100.00;100076.06;5048387;28;20033;-51
2023/03/21 08:58:22;;;;;;;2.22;0.20;;;;;;;13.25;100.00;100063.22;5051291;28;20078;-55
2023/03/21 09:00:47;;;;;;;5.40;1.25;;;;;;;13.06;100.00;100079.13;5050442;28;20044;-51
2023/03/21 09:03:13;;;;;;;7.75;1.05;;;;;;;12.92;100.00;100074.94;5061460;28;20032;-50
2023/03/21 09:05:39;;;;;;;1.95;0.52;;;;;;;12.86;100.00;100081.13;5047088;28;20029;-57
2023/03/21 09:08:05;;;;;;;4.32;1.98;;;;;;;13.22;100.00;100084.94;5049522;28;20059;-54
2023/03/21 09:10:30;;;;;;;3.60;0.63;;;;;;;13.30;100.00;100093.50;5047874;28;20025;-57
2023/03/21 09:12:56;;;;;;;4.13;0.43;;;;;;;13.34;100.00;100088.53;5054393;28;20371;-51
2023/03/21 09:15:24;;;;;;;4.57;0.60;;;;;;;13.13;100.00;100103.03;5040500;28;20020;-57
2023/03/21 09:17:51;;;;;;;5.93;1.02;;;;;;;13.21;100.00;100100.09;5038827;28;20060;-56
2023/03/21 09:20:19;;;;;;;4.30;0.50;;;;;;;13.28;100.00;100082.25;5048591;28;20045;-60
2023/03/21 09:22:50;;;;;;;9.35;2.95;;;;;;;13.36;100.00;100075.03;5050194;28;20072;-52
2023/03/21 09:25:17;;;;;;;4.43;1.27;;;;;;;13.53;100.00;100084.09;5048983;28;20064;-57
2023/03/21 09:27:46;;;;;;;2.92;0.38;;;;;;;13.54;100.00;100088.38;5052261;28;20091;-56
2023/03/21 09:30:14;;;;;;;7.63;0.50;;;;;;;13.51;100.00;100086.97;5046595;28;20024;-54
2023/03/21 09:32:40;;;;;;;1.55;1.17;;;;;;;13.56;100.00;100090.81;5047807;28;20029;-57
2023/03/21 09:35:07;;;;;;;5.72;1.52;;;;;;;13.29;100.00;100086.56;5040455;28;20037;-53
2023/03/21 09:37:32;;;;;;;2.53;0.20;;;;;;;13.20;100.00;100087.81;5039173;28;20032;-54
2023/03/21 09:39:59;;;;;;;4.25;0.45;;;;;;;13.28;100.00;100079.59;5039563;28;20032;-57
2023/03/21 09:42:58;;;;;;;5.50;1.45;;;;;;;13.57;100.00;100079.13;5037262;28;20443;-56
2023/03/21 09:45:40;;;;;;;3.67;0.60;;;;;;;13.63;100.00;100076.41;5041423;28;20047;-58
2023/03/21 09:48:18;;;;;;;3.72;1.23;;;;;;;13.56;100.00;100083.63;5050403;28;20406;-57
2023/03/21 09:50:44;;;;;;;1.77;0.10;;;;;;;13.62;100.00;100088.06;5047818;28;20416;-56
2023/03/21 09:53:28;;;;;;;3.63;0.52;;;;;;;13.54;100.00;100085.69;5057424;28;20025;-57
2023/03/21 09:55:53;;;;;;;0.68;0.00;;;;;;;13.58;100.00;100086.06;5046103;28;20075;-56
2023/03/21 09:58:29;;;;;;;1.85;0.40;;;;;;;13.56;100.00;100080.16;5055311;28;20369;-58
2023/03/21 10:01:27;;;;;;;1.10;0.00;;;;;;;13.73;100.00;100087.38;5050589;28;20033;-54
2023/03/21 10:03:59;;;;;;;2.40;0.85;;;;;;;13.26;100.00;100083.47;5043132;28;20048;-55
2023/03/21 10:06:29;;;;;;;0.98;0.25;;;;;;;13.04;100.00;100091.84;5039219;28;20021;-55
2023/03/21 10:09:26;;;;;;;3.25;0.85;;;;;;;13.16;100.00;100091.94;5056543;28;20029;-58
2023/03/21 10:12:14;;;;;;;2.65;0.30;;;;;;;13.41;100.00;100083.97;5043267;28;20049;-51
2023/03/21 10:14:44;;;;;;;0.20;0.20;;;;;;;13.61;100.00;100073.13;5049201;28;20127;-54
2023/03/21 10:17:20;;;;;;;1.80;0.25;;;;;;;13.77;100.00;100073.59;5050003;28;20036;-54
2023/03/21 10:19:54;;;;;;;6.03;1.55;;;;;;;13.91;100.00;100062.56;5055747;28;20485;-55
2023/03/21 10:22:19;;;;;;;4.03;0.00;;;;;;;14.16;100.00;100054.44;5058742;28;20075;-53
2023/03/21 10:24:45;;;;;;;1.50;0.45;;;;;;;14.04;100.00;100048.25;5054531;28;20485;-54
2023/03/21 10:27:12;;;;;;;3.17;0.32;;;;;;;14.24;100.00;100056.00;5052149;28;20478;-57
2023/03/21 10:29:46;;;;;;;7.18;0.35;;;;;;;14.33;100.00;100053.84;5057276;28;20462;-55
2023/03/21 10:32:16;;;;;;;4.90;1.58;;;;;;;14.71;100.00;100044.69;5054278;28;20040;-52
2023/03/21 10:34:44;;;;;;;2.10;0.35;;;;;;;14.63;100.00;100042.38;5049934;28;20040;-55
2023/03/21 10:37:11;;;;;;;1.75;0.30;;;;;;;14.74;100.00;100041.56;5053356;28;20387;-54
2023/03/21 10:39:42;;;;;;;2.15;0.52;;;;;;;14.80;100.00;100032.66;5056222;28;20445;-55
2023/03/21 10:42:28;;;;;;;2.87;1.30;;;;;;;14.84;100.00;100033.81;5049870;28;20033;-53
2023/03/21 10:44:56;;;;;;;2.53;0.30;;;;;;;14.83;100.00;100032.19;5047330;28;20386;-57
2023/03/21 10:47:29;;;;;;;2.85;0.75;;;;;;;14.51;100.00;100016.44;5046587;28;20067;-55
2023/03/21 10:50:00;;;;;;;2.53;0.50;;;;;;;14.73;100.00;100031.94;5052019;28;20120;-51
2023/03/21 10:52:27;;;;;;;2.45;0.25;;;;;;;14.91;100.00;100020.38;5052619;28;20490;-55
2023/03/21 10:55:27;;;;;;;3.75;0.35;;;;;;;14.64;100.00;100027.97;5053406;28;20037;-56
2023/03/21 10:58:01;;;;;;;4.65;0.75;;;;;;;14.82;100.00;100023.38;5050314;28;20464;-54
2023/03/21 11:00:34;;;;;;;1.60;0.20;;;;;;;15.21;100.00;100013.06;5053547;28;20462;-56
2023/03/21 11:03:02;;;;;;;3.10;0.20;;;;;;;15.47;100.00;100001.09;5054687;28;20037;-52
2023/03/21 11:05:37;;;;;;;4.60;0.15;;;;;;;15.71;100.00;100006.41;5051745;28;20082;-57
2023/03/21 11:08:15;;;;;;;2.00;0.60;;;;;;;15.62;100.00;100007.81;5052335;28;20024;-61
2023/03/21 11:11:03;;;;;;;6.65;1.05;;;;;;;15.46;100.00;100009.31;5049863;28;20066;-55
2023/03/21 11:13:43;;;;;;;2.22;0.35;;;;;;;15.69;100.00;100004.00;5054384;28;20491;-52
2023/03/21 11:16:21;;;;;;;3.15;1.13;;;;;;;15.84;100.00;100000.78;5049335;28;20044;-62
2023/03/21 11:18:51;;;;;;;5.63;0.47;;;;;;;16.08;100.00;99998.03;5049906;28;20084;-56
2023/03/21 11:21:17;;;;;;;2.63;0.43;;;;;;;16.20;100.00;99988.09;5047970;28;20025;-51
2023/03/21 11:23:46;;;;;;;6.35;1.52;;;;;;;15.98;100.00;99985.31;5054701;28;20102;-58
2023/03/21 11:26:22;;;;;;;5.90;1.30;;;;;;;16.28;100.00;99995.72;5050941;28;20153;-57